createdAt,value
2018-07-22T00:02:03.376Z,99.90
2018-07-22T00:04:32.732Z,99.90
2018-07-22T00:07:02.126Z,99.90
2018-07-22T00:09:31.691Z,99.90
2018-07-22T00:12:00.942Z,99.90
2018-07-22T00:14:30.257Z,99.90
2018-07-22T00:16:59.971Z,99.90
2018-07-22T00:19:29.368Z,99.90
2018-07-22T00:21:58.777Z,99.90
2018-07-22T00:24:28.323Z,99.90
2018-07-22T00:26:57.682Z,99.90
2018-07-22T00:29:27.086Z,99.90
2018-07-22T00:32:00.335Z,99.90
2018-07-22T00:34:30.775Z,99.90
2018-07-22T00:37:00.230Z,99.90
2018-07-22T00:39:29.652Z,99.90
2018-07-22T00:41:59.047Z,99.90
2018-07-22T00:44:28.450Z,99.90
2018-07-22T00:46:57.701Z,99.90
2018-07-22T00:49:27.105Z,99.90
2018-07-22T00:51:56.364Z,99.90
2018-07-22T00:54:25.557Z,99.90
2018-07-22T00:56:54.868Z,99.90
2018-07-22T00:59:24.186Z,99.90
2018-07-22T01:01:53.582Z,99.90
2018-07-22T01:04:22.953Z,99.90
2018-07-22T01:06:52.369Z,99.90
2018-07-22T01:09:21.741Z,99.90
2018-07-22T01:11:50.843Z,99.90
2018-07-22T01:14:20.227Z,99.90
2018-07-22T01:16:49.663Z,99.90
2018-07-22T01:19:19.075Z,99.90
2018-07-22T01:21:48.535Z,99.90
2018-07-22T01:24:18.014Z,99.90
2018-07-22T01:26:47.561Z,99.90
2018-07-22T01:29:16.986Z,99.90
2018-07-22T01:31:46.453Z,99.90
2018-07-22T01:34:15.871Z,99.90
2018-07-22T01:36:47.129Z,99.90
2018-07-22T01:39:16.639Z,99.90
2018-07-22T01:41:46.115Z,99.90
2018-07-22T01:44:15.498Z,99.90
2018-07-22T01:46:45.742Z,99.90
2018-07-22T01:49:15.249Z,99.90
2018-07-22T01:51:44.587Z,99.90
2018-07-22T01:54:13.849Z,99.90
2018-07-22T01:56:46.502Z,99.90
2018-07-22T01:59:15.806Z,99.90
2018-07-22T02:01:45.172Z,99.90
2018-07-22T02:04:14.530Z,99.90
2018-07-22T02:06:43.917Z,99.90
2018-07-22T02:09:14.190Z,99.90
2018-07-22T02:11:43.367Z,99.90
2018-07-22T02:14:12.753Z,99.90
2018-07-22T02:16:41.989Z,99.90
2018-07-22T02:19:11.733Z,99.90
2018-07-22T02:21:41.214Z,99.90
2018-07-22T02:24:10.565Z,99.90
2018-07-22T02:26:39.951Z,99.90
2018-07-22T02:29:09.431Z,99.90
2018-07-22T02:31:38.971Z,99.90
2018-07-22T02:34:08.325Z,99.90
2018-07-22T02:36:37.666Z,99.90
2018-07-22T02:39:09.866Z,99.90
2018-07-22T02:41:40.520Z,99.90
2018-07-22T02:44:10.242Z,99.90
2018-07-22T02:46:39.472Z,99.90
2018-07-22T02:49:08.987Z,99.90
2018-07-22T02:51:38.458Z,99.90
2018-07-22T02:54:07.796Z,99.90
2018-07-22T02:56:37.154Z,99.90
2018-07-22T02:59:07.167Z,99.90
2018-07-22T03:01:38.646Z,99.90
2018-07-22T03:04:11.167Z,99.90
2018-07-22T03:06:40.360Z,99.90
2018-07-22T03:09:10.547Z,99.90
2018-07-22T03:11:40.028Z,99.90
2018-07-22T03:14:09.456Z,99.90
2018-07-22T03:16:38.919Z,99.90
2018-07-22T03:19:08.326Z,99.90
2018-07-22T03:21:37.584Z,99.90
2018-07-22T03:24:07.357Z,99.90
2018-07-22T03:26:36.673Z,99.90
2018-07-22T03:29:06.219Z,99.90
2018-07-22T03:31:35.609Z,99.90
2018-07-22T03:34:05.189Z,99.90
2018-07-22T03:36:34.499Z,99.90
2018-07-22T03:39:04.632Z,99.90
2018-07-22T03:41:35.246Z,99.90
2018-07-22T03:44:04.609Z,99.90
2018-07-22T03:46:34.565Z,99.90
2018-07-22T03:49:04.364Z,99.90
2018-07-22T03:51:37.568Z,99.90
2018-07-22T03:54:07.074Z,99.90
2018-07-22T03:56:36.644Z,99.90
2018-07-22T03:59:05.873Z,99.90
2018-07-22T04:01:35.188Z,99.90
2018-07-22T04:04:04.537Z,99.90
2018-07-22T04:06:33.859Z,99.90
2018-07-22T04:09:03.272Z,99.90
2018-07-22T04:11:33.334Z,99.90
2018-07-22T04:14:02.815Z,99.90
2018-07-22T04:16:32.444Z,99.90
2018-07-22T04:19:01.648Z,99.90
2018-07-22T04:21:30.955Z,99.90
2018-07-22T04:24:00.318Z,99.90
2018-07-22T04:26:29.650Z,99.90
2018-07-22T04:28:59.111Z,99.90
2018-07-22T04:31:28.501Z,99.90
2018-07-22T04:33:57.988Z,99.90
2018-07-22T04:36:27.537Z,99.90
2018-07-22T04:38:56.893Z,99.90
2018-07-22T04:41:26.325Z,99.90
2018-07-22T04:43:55.787Z,99.90
2018-07-22T04:46:25.198Z,99.90
2018-07-22T04:48:54.653Z,99.90
2018-07-22T04:51:23.924Z,99.90
2018-07-22T04:53:55.069Z,99.90
2018-07-22T04:56:24.857Z,99.90
2018-07-22T04:58:54.938Z,99.90
2018-07-22T05:01:24.585Z,99.90
2018-07-22T05:03:54.141Z,99.90
2018-07-22T05:06:23.590Z,99.90
2018-07-22T05:08:52.903Z,99.90
2018-07-22T05:11:23.807Z,99.90
2018-07-22T05:13:53.283Z,99.90
2018-07-22T05:16:23.033Z,99.90
2018-07-22T05:18:52.122Z,99.90
2018-07-22T05:21:21.481Z,99.90
2018-07-22T05:23:50.814Z,99.90
2018-07-22T05:26:21.353Z,99.90
2018-07-22T05:28:54.404Z,99.90
2018-07-22T05:31:24.535Z,99.90
2018-07-22T05:33:54.016Z,99.90
2018-07-22T05:36:23.446Z,99.90
2018-07-22T05:38:52.942Z,99.90
2018-07-22T05:41:22.382Z,99.90
2018-07-22T05:43:51.760Z,99.90
2018-07-22T05:46:22.193Z,99.90
2018-07-22T05:48:51.464Z,99.90
2018-07-22T05:51:20.908Z,99.90
2018-07-22T05:53:50.502Z,99.90
2018-07-22T05:56:20.124Z,99.90
2018-07-22T05:58:49.537Z,99.90
2018-07-22T06:01:18.911Z,99.90
2018-07-22T06:03:48.281Z,99.90
2018-07-22T06:06:17.873Z,99.90
2018-07-22T06:08:47.422Z,99.90
2018-07-22T06:11:16.722Z,99.90
2018-07-22T06:13:46.148Z,99.90
2018-07-22T06:16:15.394Z,99.90
2018-07-22T06:18:45.008Z,99.90
2018-07-22T06:21:14.346Z,99.90
2018-07-22T06:23:43.859Z,99.90
2018-07-22T06:26:13.114Z,99.90
2018-07-22T06:28:42.556Z,99.90
2018-07-22T06:31:11.970Z,99.90
2018-07-22T06:33:41.215Z,99.90
2018-07-22T06:36:10.597Z,99.90
2018-07-22T06:38:39.818Z,99.90
2018-07-22T06:41:09.181Z,99.90
2018-07-22T06:43:38.594Z,99.90
2018-07-22T06:46:08.614Z,99.90
2018-07-22T06:48:39.571Z,99.90
2018-07-22T06:51:08.966Z,99.90
2018-07-22T06:53:38.370Z,99.90
2018-07-22T06:56:08.399Z,99.90
2018-07-22T06:58:37.827Z,99.90
2018-07-22T07:01:07.209Z,99.90
2018-07-22T07:03:36.573Z,99.90
2018-07-22T07:06:05.935Z,99.90
2018-07-22T07:08:35.158Z,99.90
2018-07-22T07:11:04.523Z,99.90
2018-07-22T07:13:34.075Z,99.90
2018-07-22T07:16:03.611Z,99.90
2018-07-22T07:18:33.307Z,99.90
2018-07-22T07:21:03.065Z,99.90
2018-07-22T07:23:32.924Z,99.90
2018-07-22T07:26:06.284Z,99.90
2018-07-22T07:51:01.613Z,99.90
2018-07-22T08:00:30.176Z,99.90
2018-07-22T08:06:09.524Z,99.90
2018-07-22T08:14:43.619Z,99.90
2018-07-22T08:25:28.538Z,99.90
2018-07-22T08:36:26.634Z,99.90
2018-07-22T08:38:57.762Z,99.90
2018-07-22T08:41:27.868Z,99.90
2018-07-22T08:43:59.726Z,99.90
2018-07-22T08:46:29.561Z,99.90
2018-07-22T08:48:59.397Z,99.90
2018-07-22T08:51:30.322Z,99.90
2018-07-22T08:54:01.068Z,99.90
2018-07-22T08:56:33.135Z,99.90
2018-07-22T08:59:03.588Z,99.90
2018-07-22T09:04:43.305Z,99.90
2018-07-22T09:07:21.904Z,99.90
2018-07-22T09:38:01.981Z,99.90
2018-07-22T09:41:01.387Z,99.90
2018-07-22T09:43:58.865Z,99.90
2018-07-22T09:46:48.246Z,99.90
2018-07-22T09:49:27.680Z,99.90
2018-07-22T09:51:59.230Z,99.90
2018-07-22T09:54:59.844Z,99.90
2018-07-22T09:57:34.464Z,99.90
2018-07-22T10:00:04.309Z,99.90
2018-07-22T10:02:36.971Z,99.90
2018-07-22T10:05:07.189Z,99.90
2018-07-22T10:07:38.007Z,98.20
2018-07-22T10:10:08.945Z,98.70
2018-07-22T10:12:42.819Z,97.60
2018-07-22T10:15:17.086Z,98.40
2018-07-22T10:17:47.803Z,98.00
2018-07-22T10:20:18.979Z,97.50
2018-07-22T10:22:52.030Z,97.20
2018-07-22T10:25:23.375Z,96.50
2018-07-22T10:27:54.160Z,96.60
2018-07-22T10:30:23.855Z,97.20
2018-07-22T10:32:54.098Z,94.60
2018-07-22T10:35:23.969Z,94.00
2018-07-22T10:37:54.546Z,94.40
2018-07-22T10:40:24.884Z,92.40
2018-07-22T10:42:57.059Z,92.30
2018-07-22T10:45:32.900Z,91.70
2018-07-22T10:48:09.035Z,90.40
2018-07-22T10:50:45.463Z,90.60
2018-07-22T10:58:48.754Z,83.50
2018-07-22T11:01:29.989Z,77.20
2018-07-22T11:04:11.885Z,76.20
2018-07-22T11:21:19.327Z,69.30
2018-07-22T11:23:48.540Z,68.80
2018-07-22T11:26:18.015Z,66.80
2018-07-22T11:28:47.696Z,65.40
2018-07-22T11:31:17.050Z,64.70
2018-07-22T11:33:46.411Z,64.30
2018-07-22T11:36:15.778Z,61.50
2018-07-22T11:38:45.242Z,58.00
2018-07-22T11:41:14.838Z,58.20
2018-07-22T11:43:44.413Z,57.90
2018-07-22T11:46:14.337Z,54.90
2018-07-22T11:48:43.712Z,54.60
2018-07-22T11:51:13.283Z,55.20
2018-07-22T11:53:43.136Z,57.50
2018-07-22T11:56:12.591Z,58.70
2018-07-22T11:58:41.968Z,59.60
2018-07-22T12:01:11.521Z,61.60
2018-07-22T12:03:40.940Z,64.20
2018-07-22T12:06:10.889Z,62.60
2018-07-22T12:08:40.466Z,61.70
2018-07-22T12:11:09.975Z,62.50
2018-07-22T12:13:39.713Z,62.50
2018-07-22T12:16:09.270Z,62.80
2018-07-22T12:18:44.131Z,63.40
2018-07-22T12:21:13.863Z,62.10
2018-07-22T12:23:43.981Z,62.10
2018-07-22T12:26:13.376Z,62.30
2018-07-22T12:28:42.613Z,60.60
2018-07-22T12:31:11.937Z,60.80
2018-07-22T12:33:41.186Z,62.30
2018-07-22T12:36:11.239Z,63.10
2018-07-22T12:38:41.088Z,65.20
2018-07-22T12:41:10.401Z,67.10
2018-07-22T12:43:39.706Z,67.70
2018-07-22T12:46:09.064Z,69.90
2018-07-22T12:48:38.426Z,70.50
2018-07-22T12:54:05.360Z,71.40
2018-07-22T12:56:34.885Z,69.90
2018-07-22T12:59:05.778Z,68.90
2018-07-22T13:01:37.052Z,67.30
2018-07-22T13:04:06.696Z,68.20
2018-07-22T13:06:36.159Z,64.40
2018-07-22T13:09:08.283Z,61.20
2018-07-22T13:11:38.014Z,61.40
2018-07-22T13:14:07.934Z,61.40
2018-07-22T13:16:37.746Z,63.40
2018-07-22T13:19:07.100Z,63.60
2018-07-22T13:21:36.569Z,64.60
2018-07-22T13:24:05.996Z,65.60
2018-07-22T13:26:35.514Z,66.90
2018-07-22T13:29:05.233Z,67.80
2018-07-22T13:31:34.820Z,67.40
2018-07-22T13:34:04.340Z,70.20
2018-07-22T13:36:33.705Z,69.40
2018-07-22T13:39:03.178Z,69.80
2018-07-22T13:41:32.581Z,71.60
2018-07-22T13:44:02.050Z,72.60
2018-07-22T13:46:31.722Z,73.50
2018-07-22T13:49:01.299Z,73.30
2018-07-22T13:51:31.559Z,75.00
2018-07-22T13:54:04.130Z,75.30
2018-07-22T13:56:33.583Z,75.90
2018-07-22T13:59:03.062Z,76.80
2018-07-22T14:01:32.455Z,78.70
2018-07-22T14:04:02.054Z,81.10
2018-07-22T14:06:40.418Z,83.10
2018-07-22T14:09:11.516Z,84.50
2018-07-22T14:11:40.956Z,86.30
2018-07-22T14:14:11.266Z,86.90
2018-07-22T14:16:40.602Z,88.20
2018-07-22T14:19:10.443Z,90.30
2018-07-22T14:21:39.948Z,92.80
2018-07-22T14:24:09.402Z,95.30
2018-07-22T14:26:38.835Z,97.60
2018-07-22T14:29:08.324Z,99.90
2018-07-22T14:31:37.981Z,99.90
2018-07-22T14:34:07.270Z,99.90
2018-07-22T14:36:36.797Z,99.90
2018-07-22T14:39:10.587Z,99.90
2018-07-22T14:41:40.105Z,99.90
2018-07-22T14:44:09.567Z,99.90
2018-07-22T14:46:38.976Z,99.90
2018-07-22T14:49:08.622Z,99.90
2018-07-22T14:51:37.988Z,99.90
2018-07-22T14:54:07.496Z,99.90
2018-07-22T14:56:37.040Z,99.90
2018-07-22T14:59:06.770Z,99.90
2018-07-22T15:01:36.420Z,99.90
2018-07-22T15:04:07.439Z,99.90
2018-07-22T15:06:37.166Z,99.90
2018-07-22T15:09:08.888Z,99.90
2018-07-22T15:11:38.982Z,99.90
2018-07-22T15:14:14.810Z,99.90
2018-07-22T15:16:44.746Z,99.90
2018-07-22T15:19:14.346Z,99.90
2018-07-22T15:21:44.092Z,99.90
2018-07-22T15:24:19.062Z,99.90
2018-07-22T15:26:48.850Z,99.90
2018-07-22T15:29:18.619Z,99.90
2018-07-22T15:31:49.027Z,99.90
2018-07-22T15:34:18.447Z,99.90
2018-07-22T15:36:48.145Z,99.90
2018-07-22T15:39:17.559Z,99.90
2018-07-22T15:41:47.072Z,99.90
2018-07-22T15:44:16.643Z,99.90
2018-07-22T15:46:46.144Z,99.90
2018-07-22T15:49:15.587Z,99.90
2018-07-22T15:51:45.177Z,99.90
2018-07-22T15:54:14.722Z,99.90
2018-07-22T15:56:44.175Z,99.90
2018-07-22T15:59:13.700Z,99.90
2018-07-22T16:01:43.343Z,99.90
2018-07-22T16:04:12.972Z,99.90
2018-07-22T16:06:45.853Z,99.90
2018-07-22T16:09:15.236Z,99.90
2018-07-22T16:11:45.371Z,99.90
2018-07-22T16:14:15.018Z,99.90
2018-07-22T16:16:44.537Z,99.90
2018-07-22T16:19:14.199Z,99.90
2018-07-22T16:21:43.656Z,99.90
2018-07-22T16:24:13.170Z,99.90
2018-07-22T16:26:42.780Z,99.90
2018-07-22T16:29:12.111Z,99.90
2018-07-22T16:31:42.416Z,99.90
2018-07-22T16:34:12.024Z,99.90
2018-07-22T16:36:41.654Z,99.90
2018-07-22T16:39:11.592Z,99.90
2018-07-22T16:41:41.026Z,99.90
2018-07-22T16:44:13.168Z,99.90
2018-07-22T16:46:42.857Z,99.90
2018-07-22T16:49:12.586Z,99.90
2018-07-22T16:51:42.123Z,99.90
2018-07-22T16:54:11.706Z,99.90
2018-07-22T16:56:41.478Z,99.90
2018-07-22T16:59:11.019Z,99.90
2018-07-22T17:01:40.569Z,99.90
2018-07-22T17:04:10.896Z,99.90
2018-07-22T17:06:40.345Z,99.90
2018-07-22T17:09:11.387Z,99.90
2018-07-22T17:11:40.877Z,99.90
2018-07-22T17:14:10.706Z,99.90
2018-07-22T17:16:40.192Z,99.90
2018-07-22T17:19:09.488Z,99.90
2018-07-22T17:21:38.957Z,99.90
2018-07-22T17:24:08.562Z,99.90
2018-07-22T17:26:41.107Z,99.90
2018-07-22T17:29:11.152Z,99.90
2018-07-22T17:31:40.735Z,99.90
2018-07-22T17:34:10.691Z,99.90
2018-07-22T17:36:40.355Z,99.90
2018-07-22T17:39:11.284Z,99.90
2018-07-22T17:41:41.475Z,99.90
2018-07-22T17:44:11.049Z,99.90
2018-07-22T17:46:40.724Z,99.90
2018-07-22T17:49:10.860Z,99.90
2018-07-22T17:51:40.443Z,99.90
2018-07-22T17:54:10.448Z,99.90
2018-07-22T17:56:40.890Z,99.90
2018-07-22T17:59:11.703Z,99.90
2018-07-22T18:01:52.643Z,99.90
2018-07-22T18:04:31.305Z,99.90
2018-07-22T18:07:04.253Z,99.90
2018-07-22T18:09:34.417Z,99.90
2018-07-22T18:12:08.400Z,99.90
2018-07-22T18:14:38.039Z,99.90
2018-07-22T18:17:07.544Z,99.90
2018-07-22T18:19:37.117Z,99.90
2018-07-22T18:22:06.519Z,99.90
2018-07-22T18:24:35.966Z,99.90
2018-07-22T18:27:05.309Z,99.90
2018-07-22T18:29:34.729Z,99.90
2018-07-22T18:32:04.267Z,99.90
2018-07-22T18:34:33.674Z,99.90
2018-07-22T18:37:02.903Z,99.90
2018-07-22T18:39:32.386Z,99.90
2018-07-22T18:42:01.482Z,99.90
2018-07-22T18:44:30.667Z,99.90
2018-07-22T18:46:59.889Z,99.90
2018-07-22T18:49:29.246Z,99.90
2018-07-22T18:51:58.796Z,99.90
2018-07-22T18:54:28.161Z,99.90
2018-07-22T18:57:00.661Z,99.90
2018-07-22T18:59:33.736Z,99.90
2018-07-22T19:02:02.987Z,99.90
2018-07-22T19:04:32.153Z,99.90
2018-07-22T19:07:01.507Z,99.90
2018-07-22T19:09:30.644Z,99.90
2018-07-22T19:12:00.283Z,99.90
2018-07-22T19:14:29.418Z,99.90
2018-07-22T19:16:58.705Z,99.90
2018-07-22T19:19:28.709Z,99.90
2018-07-22T19:21:57.958Z,99.90
2018-07-22T19:24:27.146Z,99.90
2018-07-22T19:26:56.490Z,99.90
2018-07-22T19:29:25.644Z,99.90
2018-07-22T19:31:54.938Z,99.90
2018-07-22T19:34:24.378Z,99.90
2018-07-22T19:36:54.129Z,99.90
2018-07-22T19:39:23.598Z,99.90
2018-07-22T19:41:53.182Z,99.90
2018-07-22T19:44:22.616Z,99.90
2018-07-22T19:46:52.914Z,99.90
2018-07-22T19:49:22.182Z,99.90
2018-07-22T19:51:51.606Z,99.90
2018-07-22T19:54:20.973Z,99.90
2018-07-22T19:56:50.394Z,99.90
2018-07-22T19:59:20.038Z,99.90
2018-07-22T20:01:49.363Z,99.90
2018-07-22T20:04:18.842Z,99.90
2018-07-22T20:06:48.483Z,99.90
2018-07-22T20:09:17.744Z,99.90
2018-07-22T20:11:47.030Z,99.90
2018-07-22T20:14:16.382Z,99.90
2018-07-22T20:16:45.724Z,99.90
2018-07-22T20:19:15.012Z,99.90
2018-07-22T20:21:44.354Z,99.90
2018-07-22T20:24:14.272Z,99.90
2018-07-22T20:26:43.791Z,99.90
2018-07-22T20:29:13.304Z,99.90
2018-07-22T20:31:42.713Z,99.90
2018-07-22T20:34:12.131Z,99.90
2018-07-22T20:36:41.466Z,99.90
2018-07-22T20:39:11.979Z,99.90
2018-07-22T20:41:42.035Z,99.90
2018-07-22T20:44:11.667Z,99.90
2018-07-22T20:46:41.098Z,99.90
2018-07-22T20:49:10.535Z,99.90
2018-07-22T20:51:39.998Z,99.90
2018-07-22T20:54:09.324Z,99.90
2018-07-22T20:56:38.729Z,99.90
2018-07-22T20:59:08.223Z,99.90
2018-07-22T21:01:37.544Z,99.90
2018-07-22T21:04:07.257Z,99.90
2018-07-22T21:06:36.870Z,99.90
2018-07-22T21:09:08.242Z,99.90
2018-07-22T21:13:44.777Z,99.90
2018-07-22T21:16:14.022Z,99.90
2018-07-22T21:18:43.314Z,99.90
2018-07-22T21:21:12.703Z,99.90
2018-07-22T21:23:41.868Z,99.90
2018-07-22T21:26:11.265Z,99.90
2018-07-22T21:28:40.582Z,99.90
2018-07-22T21:31:10.006Z,99.90
2018-07-22T21:33:41.611Z,99.90
2018-07-22T21:36:24.564Z,99.90
2018-07-22T21:38:54.023Z,99.90
2018-07-22T21:41:25.988Z,99.90
2018-07-22T21:43:57.345Z,99.90
2018-07-22T21:46:26.802Z,99.90
2018-07-22T21:48:56.090Z,99.90
2018-07-22T21:51:25.395Z,99.90
2018-07-22T21:53:54.710Z,99.90
2018-07-22T21:56:27.452Z,99.90
2018-07-22T21:58:59.663Z,99.90
2018-07-22T22:01:30.539Z,99.90
2018-07-22T22:03:59.865Z,99.90
2018-07-22T22:06:29.226Z,99.90
2018-07-22T22:08:58.623Z,99.90
2018-07-22T22:11:28.000Z,99.90
2018-07-22T22:13:57.489Z,99.90
2018-07-22T22:16:26.831Z,99.90
2018-07-22T22:18:56.309Z,99.90
2018-07-22T22:21:25.727Z,99.90
2018-07-22T22:23:55.203Z,99.90
2018-07-22T22:26:29.246Z,99.90
2018-07-22T22:28:58.611Z,99.90
2018-07-22T22:31:28.042Z,99.90
2018-07-22T22:33:57.420Z,99.90
2018-07-22T22:36:26.874Z,99.90
2018-07-22T22:38:56.309Z,99.90
2018-07-22T22:41:25.614Z,99.90
2018-07-22T22:43:54.826Z,99.90
2018-07-22T22:46:24.212Z,99.90
2018-07-22T22:48:53.582Z,99.90
2018-07-22T22:51:23.041Z,99.90
2018-07-22T22:53:52.430Z,99.90
2018-07-22T22:56:22.157Z,99.90
2018-07-22T22:59:02.328Z,99.90
2018-07-22T23:01:31.739Z,99.90
2018-07-22T23:04:01.426Z,99.90
2018-07-22T23:06:30.971Z,99.90
2018-07-22T23:09:00.432Z,99.90
2018-07-22T23:11:29.878Z,99.90
2018-07-22T23:13:59.264Z,99.90
2018-07-22T23:16:28.660Z,99.90
2018-07-22T23:18:58.063Z,99.90
2018-07-22T23:21:27.405Z,99.90
2018-07-22T23:23:56.825Z,99.90
2018-07-22T23:26:26.276Z,99.90
2018-07-22T23:28:55.855Z,99.90
2018-07-22T23:31:25.240Z,99.90
2018-07-22T23:33:54.998Z,99.90
2018-07-22T23:36:24.594Z,99.90
2018-07-22T23:38:54.095Z,99.90
2018-07-22T23:41:23.475Z,99.90
2018-07-22T23:43:52.767Z,99.90
2018-07-22T23:46:22.251Z,99.90
2018-07-22T23:48:51.719Z,99.90
2018-07-22T23:51:20.914Z,99.90
2018-07-22T23:53:50.438Z,99.90
2018-07-22T23:56:19.582Z,99.90
2018-07-22T23:58:48.848Z,99.90
